createdAt,value
2023-03-29T00:00:53.139Z,33.10
2023-03-29T00:03:44.366Z,33.10
2023-03-29T00:06:33.418Z,33.10
2023-03-29T00:09:22.556Z,33.10
2023-03-29T00:12:12.080Z,33.10
2023-03-29T00:15:02.165Z,33.20
2023-03-29T00:17:51.008Z,33.20
2023-03-29T00:20:40.092Z,33.20
2023-03-29T00:23:29.101Z,33.30
2023-03-29T00:26:17.835Z,33.30
2023-03-29T00:29:06.392Z,33.30
2023-03-29T00:31:56.987Z,33.30
2023-03-29T00:34:46.241Z,33.40
2023-03-29T00:37:35.176Z,33.40
2023-03-29T00:40:23.574Z,33.50
2023-03-29T00:43:13.020Z,33.50
2023-03-29T00:46:01.916Z,33.50
2023-03-29T00:48:54.217Z,33.50
2023-03-29T00:51:44.330Z,33.50
2023-03-29T00:54:34.653Z,33.50
2023-03-29T00:57:27.269Z,33.60
2023-03-29T01:00:22.840Z,33.60
2023-03-29T01:03:24.787Z,33.60
2023-03-29T01:06:17.034Z,33.60
2023-03-29T01:09:10.457Z,33.60
2023-03-29T01:12:02.704Z,33.70
2023-03-29T01:14:55.214Z,33.70
2023-03-29T01:17:50.377Z,33.60
2023-03-29T01:20:51.174Z,33.60
2023-03-29T01:24:06.753Z,33.60
2023-03-29T01:27:02.140Z,33.70
2023-03-29T01:29:54.587Z,33.70
2023-03-29T01:32:48.152Z,33.70
2023-03-29T01:35:40.560Z,33.70
2023-03-29T01:38:33.088Z,33.70
2023-03-29T01:41:22.191Z,33.80
2023-03-29T01:44:15.491Z,33.80
2023-03-29T01:47:13.535Z,33.80
2023-03-29T01:50:11.577Z,33.80
2023-03-29T01:53:05.576Z,33.80
2023-03-29T01:55:57.493Z,33.70
2023-03-29T01:58:50.294Z,33.70
2023-03-29T02:01:43.933Z,33.70
2023-03-29T02:04:35.971Z,33.80
2023-03-29T02:07:30.638Z,33.80
2023-03-29T02:10:21.628Z,33.80
2023-03-29T02:13:11.074Z,33.90
2023-03-29T02:16:03.206Z,33.90
2023-03-29T02:18:54.564Z,33.90
2023-03-29T02:21:52.104Z,33.90
2023-03-29T02:24:43.687Z,34.00
2023-03-29T02:27:33.245Z,34.10
2023-03-29T02:30:22.596Z,34.00
2023-03-29T02:33:15.725Z,34.00
2023-03-29T02:36:10.437Z,34.00
2023-03-29T02:39:04.934Z,34.00
2023-03-29T02:41:55.309Z,34.10
2023-03-29T02:44:46.530Z,34.10
2023-03-29T02:47:40.767Z,34.10
2023-03-29T02:50:33.863Z,34.10
2023-03-29T02:53:25.883Z,34.00
2023-03-29T02:56:16.734Z,34.00
2023-03-29T02:59:06.341Z,34.10
2023-03-29T03:01:55.334Z,34.10
2023-03-29T03:04:45.151Z,34.00
2023-03-29T03:07:34.840Z,34.10
2023-03-29T03:10:23.708Z,34.10
2023-03-29T03:13:13.845Z,34.10
2023-03-29T03:16:03.468Z,34.20
2023-03-29T03:18:53.840Z,34.20
2023-03-29T03:21:42.388Z,34.20
2023-03-29T03:24:32.813Z,34.30
2023-03-29T03:27:22.191Z,34.30
2023-03-29T03:30:13.625Z,34.30
2023-03-29T03:33:03.287Z,34.30
2023-03-29T03:35:52.250Z,34.30
2023-03-29T03:38:41.792Z,34.30
2023-03-29T03:41:31.052Z,34.30
2023-03-29T03:44:19.863Z,34.30
2023-03-29T03:47:09.812Z,34.30
2023-03-29T03:49:58.617Z,34.40
2023-03-29T03:52:47.367Z,34.40
2023-03-29T03:55:36.059Z,34.40
2023-03-29T03:58:24.931Z,34.40
2023-03-29T04:01:13.922Z,34.50
2023-03-29T04:04:04.806Z,34.50
2023-03-29T04:06:53.268Z,34.50
2023-03-29T04:09:42.116Z,34.50
2023-03-29T04:12:30.706Z,34.50
2023-03-29T04:15:20.456Z,34.50
2023-03-29T04:18:09.009Z,34.50
2023-03-29T04:20:59.242Z,34.60
2023-03-29T04:23:48.071Z,34.60
2023-03-29T04:26:36.650Z,34.60
2023-03-29T04:29:25.207Z,34.60
2023-03-29T04:32:13.880Z,34.60
2023-03-29T04:35:02.792Z,34.50
2023-03-29T04:37:54.726Z,34.50
2023-03-29T04:40:44.273Z,34.50
2023-03-29T04:43:32.871Z,34.50
2023-03-29T04:46:22.088Z,34.50
2023-03-29T04:49:11.593Z,34.50
2023-03-29T04:52:00.982Z,34.50
2023-03-29T04:54:51.178Z,34.50
2023-03-29T04:57:39.796Z,34.60
2023-03-29T05:00:28.793Z,34.60
2023-03-29T05:03:17.288Z,34.60
2023-03-29T05:06:07.300Z,34.60
2023-03-29T05:08:55.978Z,34.60
2023-03-29T05:11:46.235Z,34.60
2023-03-29T05:14:34.849Z,34.60
2023-03-29T05:17:23.982Z,34.60
2023-03-29T05:20:13.348Z,34.60
2023-03-29T05:23:02.283Z,34.60
2023-03-29T05:25:51.032Z,34.60
2023-03-29T05:28:41.005Z,34.60
2023-03-29T05:31:30.325Z,34.70
2023-03-29T05:34:18.984Z,34.60
2023-03-29T05:37:07.773Z,34.60
2023-03-29T05:40:05.651Z,34.60
2023-03-29T05:42:55.219Z,34.60
2023-03-29T05:45:45.243Z,34.50
2023-03-29T05:48:33.840Z,34.50
2023-03-29T05:51:24.549Z,34.40
2023-03-29T05:54:13.475Z,34.40
2023-03-29T05:57:02.222Z,34.40
2023-03-29T05:59:50.674Z,34.30
2023-03-29T06:02:42.186Z,34.40
2023-03-29T06:05:30.869Z,34.30
2023-03-29T06:08:19.616Z,34.30
2023-03-29T06:11:11.080Z,34.30
2023-03-29T06:14:00.345Z,34.20
2023-03-29T06:16:48.639Z,34.20
2023-03-29T06:19:38.599Z,34.20
2023-03-29T06:22:27.314Z,34.10
2023-03-29T06:25:17.765Z,34.00
2023-03-29T06:28:07.613Z,34.00
2023-03-29T06:30:56.614Z,34.00
2023-03-29T06:33:45.507Z,34.00
2023-03-29T06:36:35.648Z,33.90
2023-03-29T06:39:26.048Z,33.90
2023-03-29T06:42:21.145Z,33.90
2023-03-29T06:45:10.973Z,33.90
2023-03-29T06:47:59.826Z,33.90
2023-03-29T06:50:49.971Z,33.80
2023-03-29T06:53:39.952Z,33.90
2023-03-29T06:56:30.126Z,33.80
2023-03-29T06:59:19.142Z,33.80
2023-03-29T07:02:07.942Z,33.80
2023-03-29T07:04:56.958Z,33.80
2023-03-29T07:07:57.034Z,33.70
2023-03-29T07:10:49.204Z,33.70
2023-03-29T07:13:38.293Z,33.70
2023-03-29T07:16:27.509Z,33.60
2023-03-29T07:19:16.340Z,33.60
2023-03-29T07:22:05.004Z,33.60
2023-03-29T07:24:53.675Z,33.60
2023-03-29T07:27:44.169Z,33.50
2023-03-29T07:30:33.366Z,33.50
2023-03-29T07:33:22.424Z,33.40
2023-03-29T07:36:11.834Z,33.30
2023-03-29T07:39:02.000Z,33.20
2023-03-29T07:41:50.517Z,33.20
2023-03-29T07:44:41.822Z,33.10
2023-03-29T07:47:30.777Z,33.00
2023-03-29T07:50:19.228Z,32.70
2023-03-29T07:53:07.558Z,32.60
2023-03-29T07:55:56.492Z,32.60
2023-03-29T07:58:45.100Z,32.50
2023-03-29T08:01:35.040Z,32.40
2023-03-29T08:04:24.171Z,32.30
2023-03-29T08:07:14.387Z,32.30
2023-03-29T08:10:04.460Z,32.30
2023-03-29T08:12:53.684Z,32.20
2023-03-29T08:15:46.371Z,32.00
2023-03-29T08:18:36.504Z,32.00
2023-03-29T08:21:25.266Z,31.80
2023-03-29T08:24:14.049Z,31.70
2023-03-29T08:27:02.962Z,31.50
2023-03-29T08:29:51.879Z,31.50
2023-03-29T08:32:40.627Z,31.50
2023-03-29T08:35:31.217Z,31.40
2023-03-29T08:38:21.810Z,31.20
2023-03-29T08:41:27.497Z,31.10
2023-03-29T08:44:30.404Z,30.80
2023-03-29T08:47:24.370Z,30.70
2023-03-29T08:50:15.539Z,30.90
2023-03-29T08:53:09.226Z,30.90
2023-03-29T08:56:01.218Z,30.50
2023-03-29T08:58:52.900Z,30.20
2023-03-29T09:01:41.658Z,29.80
2023-03-29T09:04:34.414Z,29.70
2023-03-29T09:07:24.663Z,29.50
2023-03-29T09:10:19.904Z,29.20
2023-03-29T09:13:30.158Z,29.00
2023-03-29T09:16:27.446Z,28.80
2023-03-29T09:19:26.845Z,28.60
2023-03-29T09:22:22.928Z,28.70
2023-03-29T09:25:21.673Z,28.60
2023-03-29T09:28:19.348Z,28.40
2023-03-29T09:31:15.737Z,28.60
2023-03-29T09:34:14.379Z,28.30
2023-03-29T09:37:08.944Z,28.20
2023-03-29T09:39:57.752Z,28.10
2023-03-29T09:42:50.150Z,27.90
2023-03-29T09:45:39.873Z,27.60
2023-03-29T09:48:32.868Z,26.80
2023-03-29T09:51:27.904Z,26.90
2023-03-29T09:54:17.231Z,26.90
2023-03-29T09:57:06.019Z,27.00
2023-03-29T09:59:56.593Z,26.90
2023-03-29T10:02:52.828Z,26.70
2023-03-29T10:05:41.732Z,26.60
2023-03-29T10:08:32.221Z,26.40
2023-03-29T10:11:24.711Z,26.40
2023-03-29T10:14:17.753Z,26.20
2023-03-29T10:17:15.732Z,26.20
2023-03-29T10:20:07.417Z,26.10
2023-03-29T10:22:59.330Z,26.10
2023-03-29T10:25:48.051Z,26.10
2023-03-29T10:28:39.224Z,25.90
2023-03-29T10:31:31.772Z,25.80
2023-03-29T10:34:26.325Z,25.60
2023-03-29T10:37:19.473Z,25.50
2023-03-29T10:40:17.431Z,25.40
2023-03-29T10:43:16.221Z,25.50
2023-03-29T10:46:10.958Z,25.70
2023-03-29T10:49:02.849Z,25.80
2023-03-29T10:51:54.372Z,26.10
2023-03-29T10:54:43.292Z,26.10
2023-03-29T10:57:42.013Z,26.20
2023-03-29T11:00:35.812Z,26.60
2023-03-29T11:03:41.066Z,26.60
2023-03-29T11:06:36.883Z,26.50
2023-03-29T11:09:39.969Z,26.70
2023-03-29T11:12:32.922Z,26.80
2023-03-29T11:15:37.352Z,27.00
2023-03-29T11:18:48.772Z,27.10
2023-03-29T11:21:42.802Z,27.20
2023-03-29T11:24:49.929Z,27.40
2023-03-29T11:27:46.941Z,27.50
2023-03-29T11:30:44.064Z,27.60
2023-03-29T11:33:42.586Z,27.60
2023-03-29T11:36:37.683Z,27.70
2023-03-29T11:39:37.788Z,27.90
2023-03-29T11:42:32.366Z,28.00
2023-03-29T11:45:27.770Z,28.10
2023-03-29T11:48:21.576Z,28.10
2023-03-29T11:51:14.554Z,28.00
2023-03-29T11:54:07.070Z,28.00
2023-03-29T11:56:58.834Z,28.00
2023-03-29T11:59:55.204Z,28.00
2023-03-29T12:02:48.934Z,28.10
2023-03-29T12:05:43.166Z,28.10
2023-03-29T12:08:36.118Z,28.10
2023-03-29T12:11:31.318Z,28.10
2023-03-29T12:14:27.791Z,28.10
2023-03-29T12:17:22.396Z,28.20
2023-03-29T12:20:19.262Z,28.20
2023-03-29T12:23:09.460Z,28.20
2023-03-29T12:26:05.999Z,28.20
2023-03-29T12:29:12.441Z,28.30
2023-03-29T12:32:16.164Z,28.30
2023-03-29T12:35:22.342Z,28.30
2023-03-29T12:38:18.147Z,28.30
2023-03-29T12:41:16.291Z,28.40
2023-03-29T12:44:06.897Z,28.50
2023-03-29T12:47:01.166Z,28.50
2023-03-29T12:49:56.408Z,28.60
2023-03-29T12:52:46.844Z,28.70
2023-03-29T12:55:49.175Z,28.70
2023-03-29T12:59:06.736Z,28.80
2023-03-29T13:02:03.034Z,28.90
2023-03-29T13:04:54.442Z,29.00
2023-03-29T13:07:48.727Z,29.10
2023-03-29T13:10:40.960Z,29.10
2023-03-29T13:13:32.037Z,29.00
2023-03-29T13:16:23.080Z,29.00
2023-03-29T13:19:24.793Z,29.00
2023-03-29T13:22:27.688Z,29.10
2023-03-29T13:25:32.136Z,29.20
2023-03-29T13:28:30.128Z,29.30
2023-03-29T13:31:35.475Z,29.40
2023-03-29T13:34:40.264Z,29.40
2023-03-29T13:37:38.838Z,29.50
2023-03-29T13:40:45.020Z,29.60
2023-03-29T13:43:37.833Z,29.70
2023-03-29T13:46:38.887Z,29.70
2023-03-29T13:49:30.826Z,29.80
2023-03-29T13:52:27.294Z,29.90
2023-03-29T13:55:21.157Z,30.00
2023-03-29T13:58:13.910Z,30.00
2023-03-29T14:01:10.910Z,30.10
2023-03-29T14:04:01.038Z,30.10
2023-03-29T14:06:53.358Z,30.20
2023-03-29T14:09:46.170Z,30.30
2023-03-29T14:12:41.820Z,30.30
2023-03-29T14:15:43.840Z,30.30
2023-03-29T14:18:37.818Z,30.40
2023-03-29T14:21:26.702Z,30.40
2023-03-29T14:24:22.052Z,30.50
2023-03-29T14:27:14.423Z,30.50
2023-03-29T14:30:03.273Z,30.50
2023-03-29T14:32:53.521Z,30.60
2023-03-29T14:35:42.571Z,30.70
2023-03-29T14:38:32.393Z,30.80
2023-03-29T14:41:24.383Z,30.80
2023-03-29T14:44:15.912Z,30.90
2023-03-29T14:47:04.804Z,30.90
2023-03-29T14:49:57.111Z,31.00
2023-03-29T14:52:47.947Z,31.10
2023-03-29T14:55:38.938Z,31.20
2023-03-29T14:58:30.294Z,31.30
2023-03-29T15:01:20.791Z,31.40
2023-03-29T15:04:11.995Z,31.40
2023-03-29T15:07:02.786Z,31.50
2023-03-29T15:09:51.890Z,31.60
2023-03-29T15:12:43.710Z,31.60
2023-03-29T15:15:34.820Z,31.70
2023-03-29T15:18:29.349Z,31.80
2023-03-29T15:21:22.109Z,31.90
2023-03-29T15:24:23.383Z,31.90
2023-03-29T15:27:16.326Z,32.10
2023-03-29T15:30:13.027Z,32.20
2023-03-29T15:33:10.995Z,32.20
2023-03-29T15:35:59.783Z,32.30
2023-03-29T15:38:51.060Z,32.30
2023-03-29T15:41:41.688Z,32.50
2023-03-29T15:44:33.487Z,32.40
2023-03-29T15:47:22.468Z,33.90
2023-03-29T15:50:12.100Z,34.80
2023-03-29T15:53:14.259Z,35.10
2023-03-29T15:56:07.427Z,35.30
2023-03-29T15:58:57.699Z,35.50
2023-03-29T16:01:47.075Z,35.50
2023-03-29T16:04:35.998Z,35.60
2023-03-29T16:07:24.737Z,35.50
2023-03-29T16:10:13.403Z,35.60
2023-03-29T16:13:02.095Z,35.60
2023-03-29T16:15:52.046Z,35.60
2023-03-29T16:18:40.986Z,35.60
2023-03-29T16:21:29.669Z,35.60
2023-03-29T16:24:20.089Z,35.50
2023-03-29T16:27:08.788Z,35.20
2023-03-29T16:29:58.983Z,35.00
2023-03-29T16:32:49.268Z,34.90
2023-03-29T16:35:40.050Z,34.80
2023-03-29T16:38:29.404Z,34.70
2023-03-29T16:41:18.992Z,34.60
2023-03-29T16:44:07.927Z,34.60
2023-03-29T16:46:58.221Z,34.80
2023-03-29T16:49:48.978Z,34.80
2023-03-29T16:52:38.703Z,34.90
2023-03-29T16:55:28.841Z,34.90
2023-03-29T16:58:17.713Z,35.00
2023-03-29T17:01:11.378Z,35.10
2023-03-29T17:04:00.535Z,35.10
2023-03-29T17:06:51.899Z,35.20
2023-03-29T17:09:41.193Z,35.20
2023-03-29T17:12:29.975Z,35.20
2023-03-29T17:15:19.093Z,35.30
2023-03-29T17:18:08.068Z,35.30
2023-03-29T17:20:58.947Z,35.40
2023-03-29T17:23:49.514Z,35.40
2023-03-29T17:26:39.337Z,35.50
2023-03-29T17:29:28.118Z,35.60
2023-03-29T17:32:17.182Z,35.70
2023-03-29T17:35:06.391Z,35.90
2023-03-29T17:37:56.295Z,35.90
2023-03-29T17:40:52.813Z,36.00
2023-03-29T17:43:42.274Z,36.20
2023-03-29T17:46:31.272Z,36.40
2023-03-29T17:49:20.154Z,36.60
2023-03-29T17:52:09.282Z,36.60
2023-03-29T17:54:57.680Z,36.60
2023-03-29T17:57:49.180Z,36.50
2023-03-29T18:00:38.281Z,36.40
2023-03-29T18:03:27.369Z,36.30
2023-03-29T18:06:19.908Z,36.30
2023-03-29T18:09:10.480Z,36.30
2023-03-29T18:12:01.141Z,36.30
2023-03-29T18:14:51.381Z,36.30
2023-03-29T18:17:40.235Z,36.30
2023-03-29T18:20:29.006Z,36.30
2023-03-29T18:23:17.710Z,36.30
2023-03-29T18:26:07.603Z,36.30
2023-03-29T18:28:56.317Z,36.30
2023-03-29T18:31:47.173Z,36.30
2023-03-29T18:34:36.321Z,36.30
2023-03-29T18:37:25.206Z,36.30
2023-03-29T18:40:15.769Z,36.40
2023-03-29T18:43:04.410Z,36.40
2023-03-29T18:45:53.384Z,36.40
2023-03-29T18:48:43.594Z,36.40
2023-03-29T18:51:33.364Z,36.40
2023-03-29T18:54:22.184Z,36.40
2023-03-29T18:57:11.128Z,36.40
2023-03-29T19:00:00.226Z,36.40
2023-03-29T19:02:52.137Z,36.40
2023-03-29T19:05:42.106Z,36.40
2023-03-29T19:08:32.483Z,36.40
2023-03-29T19:11:21.420Z,36.50
2023-03-29T19:14:10.199Z,36.40
2023-03-29T19:16:58.670Z,36.50
2023-03-29T19:19:47.195Z,36.50
2023-03-29T19:22:37.418Z,36.50
2023-03-29T19:25:26.233Z,36.60
2023-03-29T19:28:14.865Z,36.60
2023-03-29T19:31:04.725Z,36.60
2023-03-29T19:33:53.566Z,36.70
2023-03-29T19:36:42.024Z,36.70
2023-03-29T19:39:32.850Z,36.70
2023-03-29T19:42:21.648Z,36.60
2023-03-29T19:45:11.434Z,36.70
2023-03-29T19:48:03.365Z,36.70
2023-03-29T19:50:52.434Z,36.70
2023-03-29T19:53:41.847Z,36.80
2023-03-29T19:56:33.219Z,36.90
2023-03-29T19:59:22.962Z,36.90
2023-03-29T20:02:12.364Z,36.90
2023-03-29T20:05:01.863Z,36.90
2023-03-29T20:07:50.741Z,36.90
2023-03-29T20:10:39.576Z,36.90
2023-03-29T20:13:38.095Z,37.00
2023-03-29T20:16:27.360Z,37.00
2023-03-29T20:19:17.946Z,37.10
2023-03-29T20:22:08.174Z,37.00
2023-03-29T20:24:57.555Z,37.00
2023-03-29T20:27:48.773Z,37.00
2023-03-29T20:30:39.228Z,37.10
2023-03-29T20:33:27.922Z,37.10
2023-03-29T20:36:23.156Z,37.10
2023-03-29T20:39:12.246Z,37.20
2023-03-29T20:42:01.119Z,37.20
2023-03-29T20:44:50.714Z,37.30
2023-03-29T20:47:42.668Z,37.30
2023-03-29T20:50:31.614Z,37.30
2023-03-29T20:53:21.608Z,37.30
2023-03-29T20:56:10.599Z,37.40
2023-03-29T20:58:59.354Z,37.40
2023-03-29T21:01:50.507Z,37.50
2023-03-29T21:04:41.052Z,37.60
2023-03-29T21:07:30.793Z,37.40
2023-03-29T21:10:19.736Z,37.50
2023-03-29T21:13:08.928Z,37.60
2023-03-29T21:15:57.678Z,37.50
2023-03-29T21:18:47.422Z,37.60
2023-03-29T21:21:37.982Z,37.60
2023-03-29T21:24:26.784Z,37.60
2023-03-29T21:27:15.461Z,37.70
2023-03-29T21:30:04.324Z,37.70
2023-03-29T21:32:53.265Z,37.70
2023-03-29T21:35:41.950Z,37.90
2023-03-29T21:38:32.104Z,37.80
2023-03-29T21:41:22.115Z,37.80
2023-03-29T21:44:11.081Z,37.90
2023-03-29T21:47:00.143Z,37.90
2023-03-29T21:49:48.950Z,37.90
2023-03-29T21:52:37.993Z,37.90
2023-03-29T21:55:28.154Z,38.00
2023-03-29T21:58:17.169Z,40.10
2023-03-29T22:01:07.495Z,40.40
2023-03-29T22:03:56.578Z,39.90
2023-03-29T22:06:45.123Z,39.80
2023-03-29T22:09:35.044Z,39.70
2023-03-29T22:12:26.181Z,39.60
2023-03-29T22:15:15.272Z,39.50
2023-03-29T22:18:05.328Z,39.40
2023-03-29T22:20:54.154Z,39.40
2023-03-29T22:23:43.971Z,39.20
2023-03-29T22:26:33.951Z,39.10
2023-03-29T22:29:24.027Z,39.10
2023-03-29T22:32:12.666Z,39.20
2023-03-29T22:35:01.694Z,39.00
2023-03-29T22:37:50.337Z,39.00
2023-03-29T22:40:41.639Z,39.00
2023-03-29T22:43:30.523Z,39.00
2023-03-29T22:46:20.915Z,39.00
2023-03-29T22:49:09.628Z,39.00
2023-03-29T22:51:58.242Z,39.10
2023-03-29T22:54:46.880Z,39.10
2023-03-29T22:57:35.501Z,39.00
2023-03-29T23:00:24.331Z,39.10
2023-03-29T23:03:14.644Z,39.10
2023-03-29T23:06:03.423Z,39.10
2023-03-29T23:08:51.917Z,39.10
2023-03-29T23:11:40.586Z,39.10
2023-03-29T23:14:29.242Z,39.20
2023-03-29T23:17:19.383Z,39.10
2023-03-29T23:20:11.460Z,39.10
2023-03-29T23:23:00.161Z,39.10
2023-03-29T23:25:49.719Z,39.10
2023-03-29T23:28:38.651Z,39.20
2023-03-29T23:31:27.614Z,39.30
2023-03-29T23:34:16.206Z,39.30
2023-03-29T23:37:06.211Z,39.30
2023-03-29T23:39:54.766Z,39.30
2023-03-29T23:42:45.008Z,39.40
2023-03-29T23:45:33.537Z,39.40
2023-03-29T23:48:23.891Z,39.60
2023-03-29T23:51:12.581Z,39.50
2023-03-29T23:54:03.496Z,39.50
2023-03-29T23:56:52.447Z,39.50
2023-03-29T23:59:41.080Z,39.60
